sensor_id;sensor_type;location;lat;lon;timestamp;temperature;humidity
14749;DHT22;7466;53.574;9.976;2022-09-29T00:00:48;7.30;99.90
14749;DHT22;7466;53.574;9.976;2022-09-29T00:03:28;7.30;99.90
14749;DHT22;7466;53.574;9.976;2022-09-29T00:05:55;7.30;99.90
14749;DHT22;7466;53.574;9.976;2022-09-29T00:08:29;7.30;99.90
14749;DHT22;7466;53.574;9.976;2022-09-29T00:10:56;7.20;99.90
14749;DHT22;7466;53.574;9.976;2022-09-29T00:13:23;7.20;99.90
14749;DHT22;7466;53.574;9.976;2022-09-29T00:15:55;7.20;99.90
14749;DHT22;7466;53.574;9.976;2022-09-29T00:18:23;7.20;99.90
14749;DHT22;7466;53.574;9.976;2022-09-29T00:20:57;7.20;99.90
14749;DHT22;7466;53.574;9.976;2022-09-29T00:23:26;7.20;99.90
14749;DHT22;7466;53.574;9.976;2022-09-29T00:26:02;7.20;99.90
14749;DHT22;7466;53.574;9.976;2022-09-29T00:28:33;7.20;99.90
14749;DHT22;7466;53.574;9.976;2022-09-29T00:31:12;7.10;99.90
14749;DHT22;7466;53.574;9.976;2022-09-29T00:33:39;7.10;99.90
14749;DHT22;7466;53.574;9.976;2022-09-29T00:36:09;7.10;99.90
14749;DHT22;7466;53.574;9.976;2022-09-29T00:38:38;7.10;99.90
14749;DHT22;7466;53.574;9.976;2022-09-29T00:41:06;7.10;99.90
14749;DHT22;7466;53.574;9.976;2022-09-29T00:43:50;7.00;99.90
14749;DHT22;7466;53.574;9.976;2022-09-29T00:46:23;7.00;99.90
14749;DHT22;7466;53.574;9.976;2022-09-29T00:48:52;7.00;99.90
14749;DHT22;7466;53.574;9.976;2022-09-29T00:51:24;7.10;99.90
14749;DHT22;7466;53.574;9.976;2022-09-29T00:53:54;7.10;99.90
14749;DHT22;7466;53.574;9.976;2022-09-29T00:56:22;7.10;99.90
14749;DHT22;7466;53.574;9.976;2022-09-29T00:58:52;7.10;99.90
14749;DHT22;7466;53.574;9.976;2022-09-29T01:01:21;7.10;99.90
14749;DHT22;7466;53.574;9.976;2022-09-29T01:03:51;7.10;99.90
14749;DHT22;7466;53.574;9.976;2022-09-29T01:06:21;7.10;99.90
14749;DHT22;7466;53.574;9.976;2022-09-29T01:08:55;7.20;99.90
14749;DHT22;7466;53.574;9.976;2022-09-29T01:11:24;7.20;99.90
14749;DHT22;7466;53.574;9.976;2022-09-29T01:13:53;7.20;99.90
14749;DHT22;7466;53.574;9.976;2022-09-29T01:16:21;7.20;99.90
14749;DHT22;7466;53.574;9.976;2022-09-29T01:18:50;7.20;99.90
14749;DHT22;7466;53.574;9.976;2022-09-29T01:21:28;7.20;99.90
14749;DHT22;7466;53.574;9.976;2022-09-29T01:24:41;7.20;99.90
14749;DHT22;7466;53.574;9.976;2022-09-29T01:27:42;7.20;99.90
14749;DHT22;7466;53.574;9.976;2022-09-29T01:30:18;7.20;99.90
14749;DHT22;7466;53.574;9.976;2022-09-29T01:33:05;7.20;99.90
14749;DHT22;7466;53.574;9.976;2022-09-29T01:35:41;7.10;99.90
14749;DHT22;7466;53.574;9.976;2022-09-29T01:38:30;7.10;99.90
14749;DHT22;7466;53.574;9.976;2022-09-29T01:41:06;7.10;99.90
14749;DHT22;7466;53.574;9.976;2022-09-29T01:43:39;7.10;99.90
14749;DHT22;7466;53.574;9.976;2022-09-29T01:46:13;7.10;99.90
14749;DHT22;7466;53.574;9.976;2022-09-29T01:48:49;7.00;99.90
14749;DHT22;7466;53.574;9.976;2022-09-29T01:51:24;7.10;99.90
14749;DHT22;7466;53.574;9.976;2022-09-29T01:53:56;7.10;99.90
14749;DHT22;7466;53.574;9.976;2022-09-29T01:56:27;7.00;99.90
14749;DHT22;7466;53.574;9.976;2022-09-29T01:59:00;7.10;99.90
14749;DHT22;7466;53.574;9.976;2022-09-29T02:01:34;7.10;99.90
14749;DHT22;7466;53.574;9.976;2022-09-29T02:04:08;7.00;99.90
14749;DHT22;7466;53.574;9.976;2022-09-29T02:06:40;7.00;99.90
14749;DHT22;7466;53.574;9.976;2022-09-29T02:09:11;7.00;99.90
14749;DHT22;7466;53.574;9.976;2022-09-29T02:11:40;7.00;99.90
14749;DHT22;7466;53.574;9.976;2022-09-29T02:14:12;6.90;99.90
14749;DHT22;7466;53.574;9.976;2022-09-29T02:16:44;6.90;99.90
14749;DHT22;7466;53.574;9.976;2022-09-29T02:19:17;7.00;99.90
14749;DHT22;7466;53.574;9.976;2022-09-29T02:21:44;6.90;99.90
14749;DHT22;7466;53.574;9.976;2022-09-29T02:24:12;6.90;99.90
14749;DHT22;7466;53.574;9.976;2022-09-29T02:26:39;6.90;99.90
14749;DHT22;7466;53.574;9.976;2022-09-29T02:29:07;6.90;99.90
14749;DHT22;7466;53.574;9.976;2022-09-29T02:31:36;7.00;99.90
14749;DHT22;7466;53.574;9.976;2022-09-29T02:34:03;6.90;99.90
14749;DHT22;7466;53.574;9.976;2022-09-29T02:36:41;6.90;99.90
14749;DHT22;7466;53.574;9.976;2022-09-29T02:39:18;6.90;99.90
14749;DHT22;7466;53.574;9.976;2022-09-29T02:41:59;6.90;99.90
14749;DHT22;7466;53.574;9.976;2022-09-29T02:44:41;6.90;99.90
14749;DHT22;7466;53.574;9.976;2022-09-29T02:47:41;6.90;99.90
14749;DHT22;7466;53.574;9.976;2022-09-29T02:50:33;6.90;99.90
14749;DHT22;7466;53.574;9.976;2022-09-29T02:53:07;6.90;99.90
14749;DHT22;7466;53.574;9.976;2022-09-29T02:55:41;6.90;99.90
14749;DHT22;7466;53.574;9.976;2022-09-29T02:58:13;6.90;99.90
14749;DHT22;7466;53.574;9.976;2022-09-29T03:00:41;6.90;99.90
14749;DHT22;7466;53.574;9.976;2022-09-29T03:03:09;6.90;99.90
14749;DHT22;7466;53.574;9.976;2022-09-29T03:05:54;6.90;99.90
14749;DHT22;7466;53.574;9.976;2022-09-29T03:08:22;6.90;99.90
14749;DHT22;7466;53.574;9.976;2022-09-29T03:10:49;6.80;99.90
14749;DHT22;7466;53.574;9.976;2022-09-29T03:13:16;6.80;99.90
14749;DHT22;7466;53.574;9.976;2022-09-29T03:15:42;6.80;99.90
14749;DHT22;7466;53.574;9.976;2022-09-29T03:18:09;6.80;99.90
14749;DHT22;7466;53.574;9.976;2022-09-29T03:20:36;6.80;99.90
14749;DHT22;7466;53.574;9.976;2022-09-29T03:23:03;6.80;99.90
14749;DHT22;7466;53.574;9.976;2022-09-29T03:25:31;6.80;99.90
14749;DHT22;7466;53.574;9.976;2022-09-29T03:27:58;6.90;99.90
14749;DHT22;7466;53.574;9.976;2022-09-29T03:30:25;6.90;99.90
14749;DHT22;7466;53.574;9.976;2022-09-29T03:32:51;6.80;99.90
14749;DHT22;7466;53.574;9.976;2022-09-29T03:35:18;6.80;99.90
14749;DHT22;7466;53.574;9.976;2022-09-29T03:37:45;6.80;99.90
14749;DHT22;7466;53.574;9.976;2022-09-29T03:40:12;6.80;99.90
14749;DHT22;7466;53.574;9.976;2022-09-29T03:42:40;6.80;99.90
14749;DHT22;7466;53.574;9.976;2022-09-29T03:45:08;6.80;99.90
14749;DHT22;7466;53.574;9.976;2022-09-29T03:47:34;6.70;99.90
14749;DHT22;7466;53.574;9.976;2022-09-29T03:50:01;6.70;99.90
14749;DHT22;7466;53.574;9.976;2022-09-29T03:52:28;6.80;99.90
14749;DHT22;7466;53.574;9.976;2022-09-29T03:54:55;6.80;99.90
14749;DHT22;7466;53.574;9.976;2022-09-29T03:57:22;6.80;99.90
14749;DHT22;7466;53.574;9.976;2022-09-29T03:59:50;6.80;99.90
14749;DHT22;7466;53.574;9.976;2022-09-29T04:02:17;6.80;99.90
14749;DHT22;7466;53.574;9.976;2022-09-29T04:04:45;6.80;99.90
14749;DHT22;7466;53.574;9.976;2022-09-29T04:07:12;6.80;99.90
14749;DHT22;7466;53.574;9.976;2022-09-29T04:09:39;6.90;99.90
14749;DHT22;7466;53.574;9.976;2022-09-29T04:12:05;6.80;99.90
14749;DHT22;7466;53.574;9.976;2022-09-29T04:14:32;6.90;99.90
14749;DHT22;7466;53.574;9.976;2022-09-29T04:17:00;6.80;99.90
14749;DHT22;7466;53.574;9.976;2022-09-29T04:19:27;6.80;99.90
14749;DHT22;7466;53.574;9.976;2022-09-29T04:21:54;6.80;99.90
14749;DHT22;7466;53.574;9.976;2022-09-29T04:24:21;6.80;99.90
14749;DHT22;7466;53.574;9.976;2022-09-29T04:26:47;6.80;99.90
14749;DHT22;7466;53.574;9.976;2022-09-29T04:29:14;6.80;99.90
14749;DHT22;7466;53.574;9.976;2022-09-29T04:31:41;6.90;99.90
14749;DHT22;7466;53.574;9.976;2022-09-29T04:34:09;6.80;99.90
14749;DHT22;7466;53.574;9.976;2022-09-29T04:36:36;6.80;99.90
14749;DHT22;7466;53.574;9.976;2022-09-29T04:39:03;6.80;99.90
14749;DHT22;7466;53.574;9.976;2022-09-29T04:41:29;6.80;99.90
14749;DHT22;7466;53.574;9.976;2022-09-29T04:43:59;6.90;99.90
14749;DHT22;7466;53.574;9.976;2022-09-29T04:46:27;6.90;99.90
14749;DHT22;7466;53.574;9.976;2022-09-29T04:48:54;6.90;99.90
14749;DHT22;7466;53.574;9.976;2022-09-29T04:51:22;6.90;99.90
14749;DHT22;7466;53.574;9.976;2022-09-29T04:53:49;6.90;99.90
14749;DHT22;7466;53.574;9.976;2022-09-29T04:56:18;7.00;99.90
14749;DHT22;7466;53.574;9.976;2022-09-29T04:58:45;7.00;99.90
14749;DHT22;7466;53.574;9.976;2022-09-29T05:01:12;6.90;99.90
14749;DHT22;7466;53.574;9.976;2022-09-29T05:03:39;6.90;99.90
14749;DHT22;7466;53.574;9.976;2022-09-29T05:06:07;6.90;99.90
14749;DHT22;7466;53.574;9.976;2022-09-29T05:08:35;7.00;99.90
14749;DHT22;7466;53.574;9.976;2022-09-29T05:11:08;6.90;99.90
14749;DHT22;7466;53.574;9.976;2022-09-29T05:13:35;6.90;99.90
14749;DHT22;7466;53.574;9.976;2022-09-29T05:16:02;7.00;99.90
14749;DHT22;7466;53.574;9.976;2022-09-29T05:18:30;7.10;99.90
14749;DHT22;7466;53.574;9.976;2022-09-29T05:21:02;7.10;99.90
14749;DHT22;7466;53.574;9.976;2022-09-29T05:23:29;7.00;99.90
14749;DHT22;7466;53.574;9.976;2022-09-29T05:26:01;7.00;99.90
14749;DHT22;7466;53.574;9.976;2022-09-29T05:28:28;7.00;99.90
14749;DHT22;7466;53.574;9.976;2022-09-29T05:30:59;7.00;99.90
14749;DHT22;7466;53.574;9.976;2022-09-29T05:33:25;7.00;99.90
14749;DHT22;7466;53.574;9.976;2022-09-29T05:35:52;7.00;99.90
14749;DHT22;7466;53.574;9.976;2022-09-29T05:38:19;7.00;99.90
14749;DHT22;7466;53.574;9.976;2022-09-29T05:40:47;7.00;99.90
14749;DHT22;7466;53.574;9.976;2022-09-29T05:43:15;7.10;99.90
14749;DHT22;7466;53.574;9.976;2022-09-29T05:45:42;7.10;99.90
14749;DHT22;7466;53.574;9.976;2022-09-29T05:48:09;7.10;99.90
14749;DHT22;7466;53.574;9.976;2022-09-29T05:50:36;7.20;99.90
14749;DHT22;7466;53.574;9.976;2022-09-29T05:53:06;7.20;99.90
14749;DHT22;7466;53.574;9.976;2022-09-29T05:55:33;7.20;99.90
14749;DHT22;7466;53.574;9.976;2022-09-29T05:57:59;7.30;99.90
14749;DHT22;7466;53.574;9.976;2022-09-29T06:00:28;7.30;99.90
14749;DHT22;7466;53.574;9.976;2022-09-29T06:02:57;7.30;99.90
14749;DHT22;7466;53.574;9.976;2022-09-29T06:05:23;7.40;99.90
14749;DHT22;7466;53.574;9.976;2022-09-29T06:07:56;7.40;99.90
14749;DHT22;7466;53.574;9.976;2022-09-29T06:10:23;7.50;99.90
14749;DHT22;7466;53.574;9.976;2022-09-29T06:12:51;7.50;99.90
14749;DHT22;7466;53.574;9.976;2022-09-29T06:15:18;7.50;99.90
14749;DHT22;7466;53.574;9.976;2022-09-29T06:17:46;7.60;99.90
14749;DHT22;7466;53.574;9.976;2022-09-29T06:20:16;7.60;99.90
14749;DHT22;7466;53.574;9.976;2022-09-29T06:22:42;7.70;99.90
14749;DHT22;7466;53.574;9.976;2022-09-29T06:25:09;7.70;99.90
14749;DHT22;7466;53.574;9.976;2022-09-29T06:27:36;7.80;99.90
14749;DHT22;7466;53.574;9.976;2022-09-29T06:30:04;7.80;99.90
14749;DHT22;7466;53.574;9.976;2022-09-29T06:32:32;7.80;99.90
14749;DHT22;7466;53.574;9.976;2022-09-29T06:35:01;7.80;99.90
14749;DHT22;7466;53.574;9.976;2022-09-29T06:37:45;7.90;99.90
14749;DHT22;7466;53.574;9.976;2022-09-29T06:40:12;7.90;99.90
14749;DHT22;7466;53.574;9.976;2022-09-29T06:42:39;8.00;99.90
14749;DHT22;7466;53.574;9.976;2022-09-29T06:45:08;8.00;99.90
14749;DHT22;7466;53.574;9.976;2022-09-29T06:47:35;8.00;99.90
14749;DHT22;7466;53.574;9.976;2022-09-29T06:50:04;8.00;99.90
14749;DHT22;7466;53.574;9.976;2022-09-29T06:52:31;8.10;99.90
14749;DHT22;7466;53.574;9.976;2022-09-29T06:54:58;8.00;99.90
14749;DHT22;7466;53.574;9.976;2022-09-29T06:57:25;8.10;99.90
14749;DHT22;7466;53.574;9.976;2022-09-29T06:59:51;8.20;99.90
14749;DHT22;7466;53.574;9.976;2022-09-29T07:02:19;8.30;99.90
14749;DHT22;7466;53.574;9.976;2022-09-29T07:04:47;8.40;99.90
14749;DHT22;7466;53.574;9.976;2022-09-29T07:07:15;8.30;99.90
14749;DHT22;7466;53.574;9.976;2022-09-29T07:09:42;8.30;99.90
14749;DHT22;7466;53.574;9.976;2022-09-29T07:12:09;8.30;99.90
14749;DHT22;7466;53.574;9.976;2022-09-29T07:14:37;8.40;99.90
14749;DHT22;7466;53.574;9.976;2022-09-29T07:17:03;8.40;99.90
14749;DHT22;7466;53.574;9.976;2022-09-29T07:19:30;8.50;99.90
14749;DHT22;7466;53.574;9.976;2022-09-29T07:21:57;8.40;99.90
14749;DHT22;7466;53.574;9.976;2022-09-29T07:24:26;8.40;99.90
14749;DHT22;7466;53.574;9.976;2022-09-29T07:26:52;8.50;99.90
14749;DHT22;7466;53.574;9.976;2022-09-29T07:29:19;8.40;99.90
14749;DHT22;7466;53.574;9.976;2022-09-29T07:31:46;8.40;99.90
14749;DHT22;7466;53.574;9.976;2022-09-29T07:34:16;8.50;99.90
14749;DHT22;7466;53.574;9.976;2022-09-29T07:36:43;8.50;99.90
14749;DHT22;7466;53.574;9.976;2022-09-29T07:39:09;8.50;99.90
14749;DHT22;7466;53.574;9.976;2022-09-29T07:41:37;8.50;99.90
14749;DHT22;7466;53.574;9.976;2022-09-29T07:44:04;8.60;99.90
14749;DHT22;7466;53.574;9.976;2022-09-29T07:46:31;8.70;99.90
14749;DHT22;7466;53.574;9.976;2022-09-29T07:48:58;8.60;99.90
14749;DHT22;7466;53.574;9.976;2022-09-29T07:51:25;8.70;99.90
14749;DHT22;7466;53.574;9.976;2022-09-29T07:53:51;8.70;99.90
14749;DHT22;7466;53.574;9.976;2022-09-29T07:56:20;8.70;99.90
14749;DHT22;7466;53.574;9.976;2022-09-29T07:58:49;8.60;99.90
14749;DHT22;7466;53.574;9.976;2022-09-29T08:01:17;8.60;99.90
14749;DHT22;7466;53.574;9.976;2022-09-29T08:03:49;8.60;99.90
14749;DHT22;7466;53.574;9.976;2022-09-29T08:06:16;8.70;99.90
14749;DHT22;7466;53.574;9.976;2022-09-29T08:08:43;8.80;99.90
14749;DHT22;7466;53.574;9.976;2022-09-29T08:11:12;8.90;99.90
14749;DHT22;7466;53.574;9.976;2022-09-29T08:13:39;9.10;99.90
14749;DHT22;7466;53.574;9.976;2022-09-29T08:16:10;9.20;99.90
14749;DHT22;7466;53.574;9.976;2022-09-29T08:18:37;9.20;99.90
14749;DHT22;7466;53.574;9.976;2022-09-29T08:21:05;9.40;99.90
14749;DHT22;7466;53.574;9.976;2022-09-29T08:23:34;9.50;99.90
14749;DHT22;7466;53.574;9.976;2022-09-29T08:26:03;9.60;99.90
14749;DHT22;7466;53.574;9.976;2022-09-29T08:28:32;9.70;99.90
14749;DHT22;7466;53.574;9.976;2022-09-29T08:31:01;9.70;99.90
14749;DHT22;7466;53.574;9.976;2022-09-29T08:33:29;9.80;99.90
14749;DHT22;7466;53.574;9.976;2022-09-29T08:35:56;9.80;99.90
14749;DHT22;7466;53.574;9.976;2022-09-29T08:38:23;9.80;99.90
14749;DHT22;7466;53.574;9.976;2022-09-29T08:40:51;9.90;99.90
14749;DHT22;7466;53.574;9.976;2022-09-29T08:43:23;10.00;99.90
14749;DHT22;7466;53.574;9.976;2022-09-29T08:45:57;10.20;99.90
14749;DHT22;7466;53.574;9.976;2022-09-29T08:48:30;10.30;99.90
14749;DHT22;7466;53.574;9.976;2022-09-29T08:51:00;10.40;99.90
14749;DHT22;7466;53.574;9.976;2022-09-29T08:53:33;10.50;99.90
14749;DHT22;7466;53.574;9.976;2022-09-29T08:56:04;10.40;99.90
14749;DHT22;7466;53.574;9.976;2022-09-29T08:58:31;10.60;99.90
14749;DHT22;7466;53.574;9.976;2022-09-29T09:01:16;10.80;99.90
14749;DHT22;7466;53.574;9.976;2022-09-29T09:03:56;10.80;99.90
14749;DHT22;7466;53.574;9.976;2022-09-29T09:06:35;10.90;99.90
14749;DHT22;7466;53.574;9.976;2022-09-29T09:09:17;10.90;99.90
14749;DHT22;7466;53.574;9.976;2022-09-29T09:12:00;11.10;99.90
14749;DHT22;7466;53.574;9.976;2022-09-29T09:14:44;11.30;99.90
14749;DHT22;7466;53.574;9.976;2022-09-29T09:17:23;11.50;99.90
14749;DHT22;7466;53.574;9.976;2022-09-29T09:20:07;11.60;99.90
14749;DHT22;7466;53.574;9.976;2022-09-29T09:22:41;11.60;99.90
14749;DHT22;7466;53.574;9.976;2022-09-29T09:25:19;11.60;99.90
14749;DHT22;7466;53.574;9.976;2022-09-29T09:27:56;11.50;99.90
14749;DHT22;7466;53.574;9.976;2022-09-29T09:30:28;11.30;99.90
14749;DHT22;7466;53.574;9.976;2022-09-29T09:33:00;11.40;99.90
14749;DHT22;7466;53.574;9.976;2022-09-29T09:35:34;11.50;99.90
14749;DHT22;7466;53.574;9.976;2022-09-29T09:38:04;11.40;99.90
14749;DHT22;7466;53.574;9.976;2022-09-29T09:40:38;11.30;99.90
14749;DHT22;7466;53.574;9.976;2022-09-29T09:43:11;11.30;99.90
14749;DHT22;7466;53.574;9.976;2022-09-29T09:45:43;11.20;99.90
14749;DHT22;7466;53.574;9.976;2022-09-29T09:48:17;11.40;99.90
14749;DHT22;7466;53.574;9.976;2022-09-29T09:50:46;11.30;99.90
14749;DHT22;7466;53.574;9.976;2022-09-29T09:53:18;11.30;99.90
14749;DHT22;7466;53.574;9.976;2022-09-29T09:55:57;11.20;99.90
14749;DHT22;7466;53.574;9.976;2022-09-29T09:58:34;11.20;99.90
14749;DHT22;7466;53.574;9.976;2022-09-29T10:01:05;11.40;99.90
14749;DHT22;7466;53.574;9.976;2022-09-29T10:03:36;11.90;99.90
14749;DHT22;7466;53.574;9.976;2022-09-29T10:06:06;12.20;99.90
14749;DHT22;7466;53.574;9.976;2022-09-29T10:08:35;12.30;99.90
14749;DHT22;7466;53.574;9.976;2022-09-29T10:11:15;12.30;99.90
14749;DHT22;7466;53.574;9.976;2022-09-29T10:13:48;12.70;99.90
14749;DHT22;7466;53.574;9.976;2022-09-29T10:16:18;12.40;99.90
14749;DHT22;7466;53.574;9.976;2022-09-29T10:18:49;12.50;99.90
14749;DHT22;7466;53.574;9.976;2022-09-29T10:21:34;12.60;99.90
14749;DHT22;7466;53.574;9.976;2022-09-29T10:24:03;12.30;99.90
14749;DHT22;7466;53.574;9.976;2022-09-29T10:26:34;12.40;99.90
14749;DHT22;7466;53.574;9.976;2022-09-29T10:29:15;12.50;99.90
14749;DHT22;7466;53.574;9.976;2022-09-29T10:31:57;12.60;99.90
14749;DHT22;7466;53.574;9.976;2022-09-29T10:34:24;12.60;99.90
14749;DHT22;7466;53.574;9.976;2022-09-29T10:36:55;12.50;99.90
14749;DHT22;7466;53.574;9.976;2022-09-29T10:39:36;12.30;99.90
14749;DHT22;7466;53.574;9.976;2022-09-29T10:42:15;12.10;99.90
14749;DHT22;7466;53.574;9.976;2022-09-29T10:44:50;12.10;99.90
14749;DHT22;7466;53.574;9.976;2022-09-29T10:47:18;11.90;99.90
14749;DHT22;7466;53.574;9.976;2022-09-29T10:49:46;11.90;99.90
14749;DHT22;7466;53.574;9.976;2022-09-29T10:52:22;12.00;99.90
14749;DHT22;7466;53.574;9.976;2022-09-29T10:54:56;11.80;99.90
14749;DHT22;7466;53.574;9.976;2022-09-29T10:57:25;11.80;99.90
14749;DHT22;7466;53.574;9.976;2022-09-29T10:59:53;11.60;99.90
14749;DHT22;7466;53.574;9.976;2022-09-29T11:02:25;11.60;99.90
14749;DHT22;7466;53.574;9.976;2022-09-29T11:04:56;11.60;99.90
14749;DHT22;7466;53.574;9.976;2022-09-29T11:07:25;11.70;99.90
14749;DHT22;7466;53.574;9.976;2022-09-29T11:09:52;11.70;99.90
14749;DHT22;7466;53.574;9.976;2022-09-29T11:12:26;11.70;99.90
14749;DHT22;7466;53.574;9.976;2022-09-29T11:14:53;11.70;99.90
14749;DHT22;7466;53.574;9.976;2022-09-29T11:17:22;11.70;99.90
14749;DHT22;7466;53.574;9.976;2022-09-29T11:19:50;11.80;99.90
14749;DHT22;7466;53.574;9.976;2022-09-29T11:22:33;11.70;99.90
14749;DHT22;7466;53.574;9.976;2022-09-29T11:28:18;11.50;99.90
14749;DHT22;7466;53.574;9.976;2022-09-29T11:30:56;11.50;99.90
14749;DHT22;7466;53.574;9.976;2022-09-29T11:33:33;11.50;99.90
14749;DHT22;7466;53.574;9.976;2022-09-29T11:36:09;11.70;99.90
14749;DHT22;7466;53.574;9.976;2022-09-29T11:38:47;11.80;99.90
14749;DHT22;7466;53.574;9.976;2022-09-29T11:41:48;11.80;99.90
14749;DHT22;7466;53.574;9.976;2022-09-29T11:44:53;11.80;99.90
14749;DHT22;7466;53.574;9.976;2022-09-29T11:47:51;11.70;99.90
14749;DHT22;7466;53.574;9.976;2022-09-29T11:50:33;11.80;99.90
14749;DHT22;7466;53.574;9.976;2022-09-29T11:53:12;11.80;99.90
14749;DHT22;7466;53.574;9.976;2022-09-29T11:55:56;11.70;99.90
14749;DHT22;7466;53.574;9.976;2022-09-29T11:58:36;11.80;99.90
14749;DHT22;7466;53.574;9.976;2022-09-29T12:01:22;11.70;99.90
14749;DHT22;7466;53.574;9.976;2022-09-29T12:04:00;11.80;99.90
14749;DHT22;7466;53.574;9.976;2022-09-29T12:09:55;11.90;99.90
14749;DHT22;7466;53.574;9.976;2022-09-29T12:12:28;12.00;99.90
14749;DHT22;7466;53.574;9.976;2022-09-29T12:15:17;12.10;99.90
14749;DHT22;7466;53.574;9.976;2022-09-29T12:17:50;12.00;99.90
14749;DHT22;7466;53.574;9.976;2022-09-29T12:20:21;12.10;99.90
14749;DHT22;7466;53.574;9.976;2022-09-29T12:22:49;12.20;99.90
14749;DHT22;7466;53.574;9.976;2022-09-29T12:25:19;12.10;99.90
14749;DHT22;7466;53.574;9.976;2022-09-29T12:27:53;12.00;99.90
14749;DHT22;7466;53.574;9.976;2022-09-29T12:30:23;12.00;99.90
14749;DHT22;7466;53.574;9.976;2022-09-29T12:32:53;11.90;99.90
14749;DHT22;7466;53.574;9.976;2022-09-29T12:35:29;11.90;99.90
14749;DHT22;7466;53.574;9.976;2022-09-29T12:38:05;11.80;99.90
14749;DHT22;7466;53.574;9.976;2022-09-29T12:40:38;11.80;99.90
14749;DHT22;7466;53.574;9.976;2022-09-29T12:43:16;11.90;99.90
14749;DHT22;7466;53.574;9.976;2022-09-29T12:45:53;12.00;99.90
14749;DHT22;7466;53.574;9.976;2022-09-29T12:48:31;12.20;99.90
14749;DHT22;7466;53.574;9.976;2022-09-29T12:51:05;12.20;99.90
14749;DHT22;7466;53.574;9.976;2022-09-29T12:53:37;12.30;99.90
14749;DHT22;7466;53.574;9.976;2022-09-29T12:56:10;12.40;99.90
14749;DHT22;7466;53.574;9.976;2022-09-29T12:58:43;12.40;99.90
14749;DHT22;7466;53.574;9.976;2022-09-29T13:01:22;12.30;99.90
14749;DHT22;7466;53.574;9.976;2022-09-29T13:07:50;12.20;99.90
14749;DHT22;7466;53.574;9.976;2022-09-29T13:10:43;12.20;99.90
14749;DHT22;7466;53.574;9.976;2022-09-29T13:16:34;12.40;99.90
14749;DHT22;7466;53.574;9.976;2022-09-29T13:22:22;12.40;99.90
14749;DHT22;7466;53.574;9.976;2022-09-29T13:24:59;12.50;99.90
14749;DHT22;7466;53.574;9.976;2022-09-29T13:27:31;12.40;99.90
14749;DHT22;7466;53.574;9.976;2022-09-29T13:30:04;12.20;99.90
14749;DHT22;7466;53.574;9.976;2022-09-29T13:32:38;12.20;99.90
14749;DHT22;7466;53.574;9.976;2022-09-29T13:35:11;12.10;99.90
14749;DHT22;7466;53.574;9.976;2022-09-29T13:37:45;11.90;99.90
14749;DHT22;7466;53.574;9.976;2022-09-29T13:40:21;12.00;99.90
14749;DHT22;7466;53.574;9.976;2022-09-29T13:42:49;11.80;99.90
14749;DHT22;7466;53.574;9.976;2022-09-29T13:45:38;11.60;99.90
14749;DHT22;7466;53.574;9.976;2022-09-29T13:48:36;11.70;99.90
14749;DHT22;7466;53.574;9.976;2022-09-29T13:51:23;11.60;99.90
14749;DHT22;7466;53.574;9.976;2022-09-29T13:54:37;11.60;99.90
14749;DHT22;7466;53.574;9.976;2022-09-29T13:57:17;11.40;99.90
14749;DHT22;7466;53.574;9.976;2022-09-29T14:00:00;11.40;99.90
14749;DHT22;7466;53.574;9.976;2022-09-29T14:02:33;11.50;99.90
14749;DHT22;7466;53.574;9.976;2022-09-29T14:05:03;11.50;99.90
14749;DHT22;7466;53.574;9.976;2022-09-29T14:07:39;11.50;99.90
14749;DHT22;7466;53.574;9.976;2022-09-29T14:10:18;11.50;99.90
14749;DHT22;7466;53.574;9.976;2022-09-29T14:12:54;11.50;99.90
14749;DHT22;7466;53.574;9.976;2022-09-29T14:15:23;11.60;99.90
14749;DHT22;7466;53.574;9.976;2022-09-29T14:17:54;11.50;99.90
14749;DHT22;7466;53.574;9.976;2022-09-29T14:20:26;11.50;99.90
14749;DHT22;7466;53.574;9.976;2022-09-29T14:22:57;11.50;99.90
14749;DHT22;7466;53.574;9.976;2022-09-29T14:31:16;11.50;99.90
14749;DHT22;7466;53.574;9.976;2022-09-29T14:33:45;11.50;99.90
14749;DHT22;7466;53.574;9.976;2022-09-29T14:36:20;11.50;99.90
14749;DHT22;7466;53.574;9.976;2022-09-29T14:38:53;11.50;99.90
14749;DHT22;7466;53.574;9.976;2022-09-29T14:41:27;11.60;99.90
14749;DHT22;7466;53.574;9.976;2022-09-29T14:44:01;11.60;99.90
14749;DHT22;7466;53.574;9.976;2022-09-29T14:47:00;11.60;99.90
14749;DHT22;7466;53.574;9.976;2022-09-29T14:53:33;11.70;99.90
14749;DHT22;7466;53.574;9.976;2022-09-29T14:56:12;11.70;99.90
14749;DHT22;7466;53.574;9.976;2022-09-29T14:58:51;11.70;99.90
14749;DHT22;7466;53.574;9.976;2022-09-29T15:01:25;11.70;99.90
14749;DHT22;7466;53.574;9.976;2022-09-29T15:03:55;11.60;99.90
14749;DHT22;7466;53.574;9.976;2022-09-29T15:06:24;11.60;99.90
14749;DHT22;7466;53.574;9.976;2022-09-29T15:08:55;11.60;99.90
14749;DHT22;7466;53.574;9.976;2022-09-29T15:11:26;11.60;99.90
14749;DHT22;7466;53.574;9.976;2022-09-29T15:13:53;11.60;99.90
14749;DHT22;7466;53.574;9.976;2022-09-29T15:16:26;11.60;99.90
14749;DHT22;7466;53.574;9.976;2022-09-29T15:19:21;11.60;99.90
14749;DHT22;7466;53.574;9.976;2022-09-29T15:21:57;11.60;99.90
14749;DHT22;7466;53.574;9.976;2022-09-29T15:24:58;11.60;99.90
14749;DHT22;7466;53.574;9.976;2022-09-29T15:27:28;11.60;99.90
14749;DHT22;7466;53.574;9.976;2022-09-29T15:29:58;11.60;99.90
14749;DHT22;7466;53.574;9.976;2022-09-29T15:32:27;11.60;99.90
14749;DHT22;7466;53.574;9.976;2022-09-29T15:35:01;11.60;99.90
14749;DHT22;7466;53.574;9.976;2022-09-29T15:37:53;11.70;99.90
14749;DHT22;7466;53.574;9.976;2022-09-29T15:40:24;11.70;99.90
14749;DHT22;7466;53.574;9.976;2022-09-29T15:42:52;11.70;99.90
14749;DHT22;7466;53.574;9.976;2022-09-29T15:45:22;11.60;99.90
14749;DHT22;7466;53.574;9.976;2022-09-29T15:47:59;11.50;99.90
14749;DHT22;7466;53.574;9.976;2022-09-29T15:50:26;11.50;99.90
14749;DHT22;7466;53.574;9.976;2022-09-29T15:52:56;11.50;99.90
14749;DHT22;7466;53.574;9.976;2022-09-29T15:55:27;11.50;99.90
14749;DHT22;7466;53.574;9.976;2022-09-29T15:57:54;11.50;99.90
14749;DHT22;7466;53.574;9.976;2022-09-29T16:00:49;11.40;99.90
14749;DHT22;7466;53.574;9.976;2022-09-29T16:03:20;11.40;99.90
14749;DHT22;7466;53.574;9.976;2022-09-29T16:05:58;11.30;99.90
14749;DHT22;7466;53.574;9.976;2022-09-29T16:08:27;11.30;99.90
14749;DHT22;7466;53.574;9.976;2022-09-29T16:10:57;11.40;99.90
14749;DHT22;7466;53.574;9.976;2022-09-29T16:13:27;11.30;99.90
14749;DHT22;7466;53.574;9.976;2022-09-29T16:15:56;11.30;99.90
14749;DHT22;7466;53.574;9.976;2022-09-29T16:18:25;11.30;99.90
14749;DHT22;7466;53.574;9.976;2022-09-29T16:20:55;11.30;99.90
14749;DHT22;7466;53.574;9.976;2022-09-29T16:23:27;11.30;99.90
14749;DHT22;7466;53.574;9.976;2022-09-29T16:26:14;11.30;99.90
14749;DHT22;7466;53.574;9.976;2022-09-29T16:29:06;11.20;99.90
14749;DHT22;7466;53.574;9.976;2022-09-29T16:31:40;11.30;99.90
14749;DHT22;7466;53.574;9.976;2022-09-29T16:34:22;11.20;99.90
14749;DHT22;7466;53.574;9.976;2022-09-29T16:36:51;11.20;99.90
14749;DHT22;7466;53.574;9.976;2022-09-29T16:39:20;11.20;99.90
14749;DHT22;7466;53.574;9.976;2022-09-29T16:41:50;11.20;99.90
14749;DHT22;7466;53.574;9.976;2022-09-29T16:44:23;11.20;99.90
14749;DHT22;7466;53.574;9.976;2022-09-29T16:46:53;11.20;99.90
14749;DHT22;7466;53.574;9.976;2022-09-29T16:49:22;11.20;99.90
14749;DHT22;7466;53.574;9.976;2022-09-29T16:51:55;11.20;99.90
14749;DHT22;7466;53.574;9.976;2022-09-29T16:54:24;11.20;99.90